createdAt,value
2017-07-29T00:00:20.397Z,993.27
2017-07-29T00:01:20.425Z,993.28
2017-07-29T00:02:20.454Z,993.25
2017-07-29T00:03:20.477Z,993.22
2017-07-29T00:04:20.510Z,993.22
2017-07-29T00:05:20.534Z,993.21
2017-07-29T00:06:20.561Z,993.23
2017-07-29T00:07:20.593Z,993.16
2017-07-29T00:08:20.622Z,993.14
2017-07-29T00:09:20.649Z,993.13
2017-07-29T00:10:20.679Z,993.12
2017-07-29T00:11:20.703Z,993.07
2017-07-29T00:12:20.732Z,993.12
2017-07-29T00:13:20.761Z,993.03
2017-07-29T00:14:20.790Z,993.09
2017-07-29T00:15:20.820Z,993.05
2017-07-29T00:16:20.846Z,993.01
2017-07-29T00:17:20.870Z,993.07
2017-07-29T00:18:20.900Z,993.06
2017-07-29T00:19:20.930Z,993.03
2017-07-29T00:20:20.956Z,993
2017-07-29T00:21:20.988Z,993.03
2017-07-29T00:22:21.013Z,993.05
2017-07-29T00:23:21.046Z,993.09
2017-07-29T00:24:21.073Z,993.1
2017-07-29T00:25:21.103Z,993.09
2017-07-29T00:26:21.126Z,993.11
2017-07-29T00:27:21.153Z,993.13
2017-07-29T00:28:21.186Z,993.16
2017-07-29T00:29:21.215Z,993.14
2017-07-29T00:30:21.246Z,993.14
2017-07-29T00:31:21.272Z,993.15
2017-07-29T00:32:21.297Z,993.18
2017-07-29T00:33:21.326Z,993.18
2017-07-29T00:34:21.354Z,993.18
2017-07-29T00:35:21.383Z,993.18
2017-07-29T00:36:21.412Z,993.18
2017-07-29T00:37:21.443Z,993.17
2017-07-29T00:38:21.472Z,993.18
2017-07-29T00:39:21.495Z,993.16
2017-07-29T00:40:21.522Z,993.18
2017-07-29T00:41:21.552Z,993.14
2017-07-29T00:42:21.581Z,993.18
2017-07-29T00:43:21.608Z,993.17
2017-07-29T00:44:21.638Z,993.15
2017-07-29T00:45:21.664Z,993.15
2017-07-29T00:46:21.693Z,993.16
2017-07-29T00:47:21.722Z,993.15
2017-07-29T00:48:21.749Z,993.12
2017-07-29T00:49:21.778Z,993.13
2017-07-29T00:50:21.803Z,993.14
2017-07-29T00:51:21.834Z,993.1
2017-07-29T00:52:21.861Z,993.1
2017-07-29T00:53:21.890Z,993.15
2017-07-29T00:54:21.919Z,993.11
2017-07-29T00:55:22.246Z,993.11
2017-07-29T00:56:21.977Z,993.11
2017-07-29T00:57:22.005Z,993.09
2017-07-29T00:58:22.029Z,993.11
2017-07-29T00:59:22.054Z,993.06
2017-07-29T01:00:22.086Z,993.1
2017-07-29T01:01:22.111Z,993.08
2017-07-29T01:02:22.142Z,993.07
2017-07-29T01:03:22.171Z,993.09
2017-07-29T01:04:22.201Z,993.12
2017-07-29T01:05:22.228Z,993.13
2017-07-29T01:06:22.258Z,993.08
2017-07-29T01:07:22.285Z,993.12
2017-07-29T01:08:22.309Z,993.08
2017-07-29T01:09:22.338Z,993.05
2017-07-29T01:10:22.367Z,992.97
2017-07-29T01:11:22.395Z,993.02
2017-07-29T01:12:22.428Z,992.99
2017-07-29T01:13:22.641Z,992.94
2017-07-29T01:14:22.478Z,993.01
2017-07-29T01:15:22.509Z,992.96
2017-07-29T01:16:22.536Z,992.97
2017-07-29T01:17:22.565Z,992.96
2017-07-29T01:18:22.594Z,992.95
2017-07-29T01:19:22.618Z,992.93
2017-07-29T01:20:22.648Z,992.93
2017-07-29T01:21:22.672Z,992.91
2017-07-29T01:22:22.705Z,992.94
2017-07-29T01:23:22.735Z,992.91
2017-07-29T01:24:22.764Z,992.9
2017-07-29T01:25:22.789Z,992.91
2017-07-29T01:26:22.811Z,992.88
2017-07-29T01:27:22.847Z,992.88
2017-07-29T01:28:22.874Z,992.89
2017-07-29T01:29:22.903Z,992.93
2017-07-29T01:30:22.927Z,992.86
2017-07-29T01:31:22.955Z,992.88
2017-07-29T01:32:22.983Z,992.87
2017-07-29T01:33:23.013Z,992.9
2017-07-29T01:34:23.038Z,992.85
2017-07-29T01:35:23.066Z,992.87
2017-07-29T01:36:23.091Z,992.9
2017-07-29T01:37:23.125Z,992.87
2017-07-29T01:38:23.152Z,992.87
2017-07-29T01:39:23.181Z,992.88
2017-07-29T01:40:23.206Z,992.84
2017-07-29T01:41:23.235Z,992.88
2017-07-29T01:42:23.264Z,992.88
2017-07-29T01:43:23.294Z,992.9
2017-07-29T01:44:23.322Z,992.87
2017-07-29T01:45:23.348Z,992.87
2017-07-29T01:46:23.375Z,992.93
2017-07-29T01:47:23.404Z,992.89
2017-07-29T01:48:23.435Z,992.88
2017-07-29T01:49:23.457Z,992.92
2017-07-29T01:50:23.486Z,992.96
2017-07-29T01:51:23.516Z,992.98
2017-07-29T01:52:23.545Z,992.96
2017-07-29T01:53:23.573Z,993.01
2017-07-29T01:54:23.601Z,992.98
2017-07-29T01:55:23.627Z,992.97
2017-07-29T01:56:23.660Z,992.97
2017-07-29T01:57:23.684Z,993.03
2017-07-29T01:58:23.713Z,993
2017-07-29T01:59:23.742Z,992.97
2017-07-29T02:00:23.767Z,992.98
2017-07-29T02:01:23.797Z,993.02
2017-07-29T02:02:23.825Z,992.99
2017-07-29T02:03:23.853Z,992.94
2017-07-29T02:04:23.883Z,992.95
2017-07-29T02:05:23.911Z,992.94
2017-07-29T02:06:23.935Z,992.93
2017-07-29T02:07:23.965Z,992.94
2017-07-29T02:08:23.990Z,992.94
2017-07-29T02:09:24.018Z,992.95
2017-07-29T02:10:24.041Z,992.94
2017-07-29T02:11:24.076Z,992.96
2017-07-29T02:12:24.104Z,992.91
2017-07-29T02:13:24.133Z,992.94
2017-07-29T02:14:24.162Z,992.91
2017-07-29T02:15:24.183Z,992.93
2017-07-29T02:16:24.214Z,992.88
2017-07-29T02:17:24.245Z,992.91
2017-07-29T02:18:24.276Z,992.87
2017-07-29T02:19:24.301Z,992.87
2017-07-29T02:20:24.327Z,992.87
2017-07-29T02:21:24.356Z,992.84
2017-07-29T02:22:24.385Z,992.83
2017-07-29T02:23:24.413Z,992.85
2017-07-29T02:24:24.442Z,992.84
2017-07-29T02:25:24.461Z,992.81
2017-07-29T02:26:24.495Z,992.85
2017-07-29T02:27:24.524Z,992.84
2017-07-29T02:28:24.553Z,992.83
2017-07-29T02:29:24.577Z,992.79
2017-07-29T02:30:24.604Z,992.84
2017-07-29T02:31:24.636Z,992.82
2017-07-29T02:32:24.665Z,992.83
2017-07-29T02:33:24.695Z,992.84
2017-07-29T02:34:24.718Z,992.85
2017-07-29T02:35:24.743Z,992.85
2017-07-29T02:36:24.775Z,992.83
2017-07-29T02:37:24.805Z,992.84
2017-07-29T02:38:24.836Z,992.86
2017-07-29T02:39:24.864Z,992.83
2017-07-29T02:40:24.889Z,992.87
2017-07-29T02:41:24.916Z,992.87
2017-07-29T02:42:24.945Z,992.86
2017-07-29T02:43:24.972Z,992.81
2017-07-29T02:44:24.998Z,992.88
2017-07-29T02:45:25.029Z,992.88
2017-07-29T02:46:25.055Z,992.83
2017-07-29T02:47:25.084Z,992.83
2017-07-29T02:48:25.116Z,992.8
2017-07-29T02:49:25.142Z,992.81
2017-07-29T02:50:25.174Z,992.82
2017-07-29T02:51:25.197Z,992.84
2017-07-29T02:52:25.225Z,992.83
2017-07-29T02:53:25.249Z,992.84
2017-07-29T02:54:25.283Z,992.87
2017-07-29T02:55:25.306Z,992.83
2017-07-29T02:56:25.336Z,992.82
2017-07-29T02:57:25.364Z,992.82
2017-07-29T02:58:25.389Z,992.79
2017-07-29T02:59:25.419Z,992.81
2017-07-29T03:00:25.446Z,992.82
2017-07-29T03:01:25.475Z,992.8
2017-07-29T03:02:25.500Z,992.81
2017-07-29T03:03:25.529Z,992.78
2017-07-29T03:04:25.558Z,992.82
2017-07-29T03:05:25.586Z,992.8
2017-07-29T03:06:25.616Z,992.8
2017-07-29T03:07:25.639Z,992.79
2017-07-29T03:08:25.670Z,992.8
2017-07-29T03:09:25.698Z,992.82
2017-07-29T03:10:25.726Z,992.78
2017-07-29T03:11:26.007Z,992.77
2017-07-29T03:12:25.777Z,992.8
2017-07-29T03:13:25.810Z,992.78
2017-07-29T03:14:25.834Z,992.8
2017-07-29T03:15:25.867Z,992.81
2017-07-29T03:16:26.191Z,992.84
2017-07-29T03:17:25.920Z,992.81
2017-07-29T03:18:25.948Z,992.8
2017-07-29T03:19:25.978Z,992.81
2017-07-29T03:20:26.002Z,992.82
2017-07-29T03:21:26.031Z,992.85
2017-07-29T03:22:26.061Z,992.86
2017-07-29T03:23:26.089Z,992.89
2017-07-29T03:24:26.118Z,992.91
2017-07-29T03:25:26.143Z,992.88
2017-07-29T03:26:26.173Z,992.88
2017-07-29T03:27:26.201Z,992.85
2017-07-29T03:28:26.230Z,992.89
2017-07-29T03:29:26.259Z,992.86
2017-07-29T03:30:26.283Z,992.86
2017-07-29T03:31:26.311Z,992.8
2017-07-29T03:32:26.340Z,992.74
2017-07-29T03:33:26.370Z,992.78
2017-07-29T03:34:26.394Z,992.72
2017-07-29T03:35:26.427Z,992.76
2017-07-29T03:36:26.452Z,992.69
2017-07-29T03:37:26.483Z,992.72
2017-07-29T03:38:26.509Z,992.71
2017-07-29T03:39:26.537Z,992.7
2017-07-29T03:40:26.563Z,992.72
2017-07-29T03:41:26.592Z,992.68
2017-07-29T03:42:26.620Z,992.71
2017-07-29T03:43:26.648Z,992.73
2017-07-29T03:44:26.674Z,992.69
2017-07-29T03:45:26.703Z,992.7
2017-07-29T03:46:26.732Z,992.68
2017-07-29T03:47:26.757Z,992.67
2017-07-29T03:48:26.790Z,992.72
2017-07-29T03:49:26.810Z,992.71
2017-07-29T03:50:26.841Z,992.67
2017-07-29T03:51:26.871Z,992.68
2017-07-29T03:52:26.900Z,992.73
2017-07-29T03:53:26.921Z,992.72
2017-07-29T03:54:26.949Z,992.77
2017-07-29T03:55:26.994Z,992.73
2017-07-29T03:56:27.008Z,992.76
2017-07-29T03:57:27.039Z,992.76
2017-07-29T03:58:27.065Z,992.76
2017-07-29T03:59:27.094Z,992.72
2017-07-29T04:00:27.118Z,992.73
2017-07-29T04:01:27.147Z,992.71
2017-07-29T04:02:27.177Z,992.7
2017-07-29T04:03:27.206Z,992.65
2017-07-29T04:04:27.235Z,992.7
2017-07-29T04:05:27.258Z,992.71
2017-07-29T04:06:27.286Z,992.68
2017-07-29T04:07:27.316Z,992.67
2017-07-29T04:08:27.346Z,992.68
2017-07-29T04:09:27.373Z,992.66
2017-07-29T04:10:27.405Z,992.65
2017-07-29T04:11:27.429Z,992.67
2017-07-29T04:12:27.459Z,992.67
2017-07-29T04:13:27.485Z,992.65
2017-07-29T04:14:27.514Z,992.72
2017-07-29T04:15:27.541Z,992.72
2017-07-29T04:16:27.568Z,992.75
2017-07-29T04:17:27.597Z,992.74
2017-07-29T04:18:27.620Z,992.76
2017-07-29T04:19:27.649Z,992.76
2017-07-29T04:20:27.679Z,992.73
2017-07-29T04:21:27.708Z,992.74
2017-07-29T04:22:27.733Z,992.74
2017-07-29T04:23:27.762Z,992.74
2017-07-29T04:24:27.790Z,992.74
2017-07-29T04:25:27.819Z,992.78
2017-07-29T04:26:27.843Z,992.75
2017-07-29T04:27:27.871Z,992.75
2017-07-29T04:28:27.901Z,992.8
2017-07-29T04:29:27.929Z,992.82
2017-07-29T04:30:27.955Z,992.81
2017-07-29T04:31:27.983Z,992.78
2017-07-29T04:32:28.011Z,992.81
2017-07-29T04:33:28.041Z,992.83
2017-07-29T04:34:28.061Z,992.77
2017-07-29T04:35:28.094Z,992.76
2017-07-29T04:36:28.124Z,992.8
2017-07-29T04:37:28.152Z,992.86
2017-07-29T04:38:28.177Z,992.83
2017-07-29T04:39:28.205Z,992.84
2017-07-29T04:40:28.235Z,992.83
2017-07-29T04:41:28.264Z,992.91
2017-07-29T04:42:28.292Z,992.91
2017-07-29T04:43:28.318Z,992.97
2017-07-29T04:44:28.346Z,992.94
2017-07-29T04:45:28.375Z,993.03
2017-07-29T04:46:28.404Z,993.05
2017-07-29T04:47:28.424Z,993
2017-07-29T04:48:28.457Z,993.02
2017-07-29T04:49:28.485Z,993.08
2017-07-29T04:50:28.514Z,993.07
2017-07-29T04:51:28.540Z,993.06
2017-07-29T04:52:28.568Z,993.07
2017-07-29T04:53:28.597Z,993.15
2017-07-29T04:54:28.625Z,993.11
2017-07-29T04:55:28.651Z,993.12
2017-07-29T04:56:28.681Z,993.16
2017-07-29T04:57:28.713Z,993.13
2017-07-29T04:58:28.733Z,993.16
2017-07-29T04:59:28.761Z,993.19
2017-07-29T05:00:28.790Z,993.14
2017-07-29T05:01:28.819Z,993.25
2017-07-29T05:02:28.843Z,993.21
2017-07-29T05:03:28.871Z,993.27
2017-07-29T05:04:28.902Z,993.2
2017-07-29T05:05:28.930Z,993.22
2017-07-29T05:06:28.959Z,993.21
2017-07-29T05:07:28.984Z,993.18
2017-07-29T05:08:29.013Z,993.22
2017-07-29T05:09:29.041Z,993.18
2017-07-29T05:10:29.073Z,993.16
2017-07-29T05:11:29.099Z,993.19
2017-07-29T05:12:29.128Z,993.21
2017-07-29T05:13:29.148Z,993.19
2017-07-29T05:14:29.181Z,993.23
2017-07-29T05:15:29.210Z,993.24
2017-07-29T05:16:29.239Z,993.22
2017-07-29T05:17:29.259Z,993.23
2017-07-29T05:18:29.288Z,993.23
2017-07-29T05:19:29.321Z,993.26
2017-07-29T05:20:29.346Z,993.25
2017-07-29T05:21:29.375Z,993.23
2017-07-29T05:22:29.404Z,993.29
2017-07-29T05:23:29.432Z,993.32
2017-07-29T05:24:29.457Z,993.32
2017-07-29T05:25:29.486Z,993.32
2017-07-29T05:26:29.515Z,993.26
2017-07-29T05:27:29.544Z,993.26
2017-07-29T05:28:29.568Z,993.29
2017-07-29T05:29:29.597Z,993.35
2017-07-29T05:30:29.627Z,993.33
2017-07-29T05:31:29.652Z,993.35
2017-07-29T05:32:29.679Z,993.34
2017-07-29T05:33:29.709Z,993.39
2017-07-29T05:34:29.740Z,993.35
2017-07-29T05:35:29.765Z,993.39
2017-07-29T05:36:29.797Z,993.39
2017-07-29T05:37:30.119Z,993.31
2017-07-29T05:38:29.844Z,993.35
2017-07-29T05:39:29.879Z,993.35
2017-07-29T05:40:29.919Z,993.33
2017-07-29T05:41:29.927Z,993.36
2017-07-29T05:42:30.260Z,993.37
2017-07-29T05:43:29.984Z,993.37
2017-07-29T05:44:30.017Z,993.38
2017-07-29T05:45:30.056Z,993.37
2017-07-29T05:46:30.070Z,993.34
2017-07-29T05:47:30.099Z,993.35
2017-07-29T05:48:30.125Z,993.32
2017-07-29T05:49:30.156Z,993.39
2017-07-29T05:50:30.182Z,993.36
2017-07-29T05:51:30.211Z,993.35
2017-07-29T05:52:30.240Z,993.31
2017-07-29T05:53:30.264Z,993.3
2017-07-29T05:54:30.292Z,993.32
2017-07-29T05:55:30.321Z,993.28
2017-07-29T05:56:30.350Z,993.34
2017-07-29T05:57:30.376Z,993.36
2017-07-29T05:58:30.399Z,993.36
2017-07-29T05:59:30.433Z,993.39
2017-07-29T06:00:30.461Z,993.33
2017-07-29T06:01:30.490Z,993.35
2017-07-29T06:02:30.516Z,993.34
2017-07-29T06:03:30.539Z,993.35
2017-07-29T06:04:30.573Z,993.31
2017-07-29T06:05:30.602Z,993.35
2017-07-29T06:06:30.627Z,993.39
2017-07-29T06:07:30.655Z,993.33
2017-07-29T06:08:30.684Z,993.36
2017-07-29T06:09:30.713Z,993.39
2017-07-29T06:10:30.756Z,993.42
2017-07-29T06:11:30.767Z,993.4
2017-07-29T06:12:30.796Z,993.43
2017-07-29T06:13:30.825Z,993.43
2017-07-29T06:14:30.853Z,993.39
2017-07-29T06:15:30.876Z,993.42
2017-07-29T06:16:30.906Z,993.35
2017-07-29T06:17:30.935Z,993.42
2017-07-29T06:18:30.963Z,993.37
2017-07-29T06:19:30.993Z,993.42
2017-07-29T06:20:31.018Z,993.39
2017-07-29T06:21:31.047Z,993.44
2017-07-29T06:22:31.075Z,993.39
2017-07-29T06:23:31.109Z,993.41
2017-07-29T06:24:31.133Z,993.4
2017-07-29T06:25:31.158Z,993.42
2017-07-29T06:26:31.187Z,993.45
2017-07-29T06:27:31.219Z,993.38
2017-07-29T06:28:31.244Z,993.4
2017-07-29T06:29:31.273Z,993.37
2017-07-29T06:30:31.297Z,993.35
2017-07-29T06:31:31.323Z,993.36
2017-07-29T06:32:31.356Z,993.38
2017-07-29T06:33:31.384Z,993.39
2017-07-29T06:34:31.412Z,993.38
2017-07-29T06:35:31.438Z,993.39
2017-07-29T06:36:31.467Z,993.4
2017-07-29T06:37:31.493Z,993.39
2017-07-29T06:38:31.524Z,993.46
2017-07-29T06:39:31.553Z,993.4
2017-07-29T06:40:31.581Z,993.4
2017-07-29T06:41:31.605Z,993.45
2017-07-29T06:42:31.630Z,993.33
2017-07-29T06:43:31.664Z,993.37
2017-07-29T06:44:31.692Z,993.41
2017-07-29T06:45:31.720Z,993.34
2017-07-29T06:46:31.750Z,993.28
2017-07-29T06:47:31.774Z,993.33
2017-07-29T06:48:31.804Z,993.35
2017-07-29T06:49:31.833Z,993.35
2017-07-29T06:50:31.861Z,993.4
2017-07-29T06:51:31.890Z,993.37
2017-07-29T06:52:31.915Z,993.4
2017-07-29T06:53:32.246Z,993.39
2017-07-29T06:54:31.972Z,993.43
2017-07-29T06:55:32.001Z,993.46
2017-07-29T06:56:32.030Z,993.4
2017-07-29T06:57:32.059Z,993.44
2017-07-29T06:58:32.088Z,993.49
2017-07-29T06:59:32.116Z,993.43
2017-07-29T07:00:32.144Z,993.41
2017-07-29T07:01:32.173Z,993.42
2017-07-29T07:02:32.198Z,993.42
2017-07-29T07:03:32.229Z,993.45
2017-07-29T07:04:32.256Z,993.43
2017-07-29T07:05:32.284Z,993.44
2017-07-29T07:06:32.317Z,993.4
2017-07-29T07:07:32.341Z,993.41
2017-07-29T07:08:32.369Z,993.43
2017-07-29T07:09:32.400Z,993.48
2017-07-29T07:10:32.421Z,993.46
2017-07-29T07:11:32.454Z,993.43
2017-07-29T07:12:32.479Z,993.44
2017-07-29T07:13:32.508Z,993.42
2017-07-29T07:14:32.537Z,993.45
2017-07-29T07:15:32.565Z,993.45
2017-07-29T07:16:32.594Z,993.44
2017-07-29T07:17:32.624Z,993.44
2017-07-29T07:18:32.648Z,993.45
2017-07-29T07:19:32.676Z,993.45
2017-07-29T07:20:32.705Z,993.48
2017-07-29T07:21:32.734Z,993.43
2017-07-29T07:22:32.763Z,993.48
2017-07-29T07:23:32.792Z,993.49
2017-07-29T07:24:32.821Z,993.5
2017-07-29T07:25:32.849Z,993.51
2017-07-29T07:26:32.878Z,993.52
2017-07-29T07:27:32.904Z,993.47
2017-07-29T07:28:32.932Z,993.49
2017-07-29T07:29:32.961Z,993.49
2017-07-29T07:30:32.989Z,993.48
2017-07-29T07:31:33.014Z,993.49
2017-07-29T07:32:33.047Z,993.5
2017-07-29T07:33:33.082Z,993.55
2017-07-29T07:34:33.103Z,993.56
2017-07-29T07:35:33.133Z,993.58
2017-07-29T07:36:33.155Z,993.55
2017-07-29T07:37:33.187Z,993.56
2017-07-29T07:38:33.217Z,993.55
2017-07-29T07:39:33.245Z,993.51
2017-07-29T07:40:33.274Z,993.55
2017-07-29T07:41:33.301Z,993.52
2017-07-29T07:42:33.331Z,993.56
2017-07-29T07:43:33.367Z,993.58
2017-07-29T07:44:33.385Z,993.54
2017-07-29T07:45:33.413Z,993.52
2017-07-29T07:46:33.443Z,993.5
2017-07-29T07:47:33.467Z,993.51
2017-07-29T07:48:33.500Z,993.53
2017-07-29T07:49:33.529Z,993.56
2017-07-29T07:50:33.558Z,993.56
2017-07-29T07:51:33.582Z,993.54
2017-07-29T07:52:33.613Z,993.61
2017-07-29T07:53:33.639Z,993.59
2017-07-29T07:54:33.668Z,993.57
2017-07-29T07:55:33.699Z,993.65
2017-07-29T07:56:33.726Z,993.67
2017-07-29T07:57:33.755Z,993.61
2017-07-29T07:58:33.784Z,993.65
2017-07-29T07:59:33.817Z,993.64
2017-07-29T08:00:33.842Z,993.61
2017-07-29T08:01:33.867Z,993.69
2017-07-29T08:02:33.895Z,993.63
2017-07-29T08:03:33.925Z,993.66
2017-07-29T08:04:33.953Z,993.62
2017-07-29T08:05:33.978Z,993.64
2017-07-29T08:06:34.011Z,993.62
2017-07-29T08:07:34.038Z,993.66
2017-07-29T08:08:34.070Z,993.73
2017-07-29T08:09:34.093Z,993.78
2017-07-29T08:10:34.124Z,993.71
2017-07-29T08:11:34.150Z,993.76
2017-07-29T08:12:34.183Z,993.78
2017-07-29T08:13:34.208Z,993.72
2017-07-29T08:14:34.243Z,993.69
2017-07-29T08:15:34.264Z,993.76
2017-07-29T08:16:34.297Z,993.74
2017-07-29T08:17:34.322Z,993.81
2017-07-29T08:18:34.351Z,993.72
2017-07-29T08:19:34.381Z,993.8
2017-07-29T08:20:34.409Z,993.82
2017-07-29T08:21:34.436Z,993.72
2017-07-29T08:22:34.467Z,993.73
2017-07-29T08:23:34.492Z,993.72
2017-07-29T08:24:34.775Z,993.67
2017-07-29T08:25:34.547Z,993.76
2017-07-29T08:26:34.576Z,993.72
2017-07-29T08:27:34.609Z,993.73
2017-07-29T08:28:34.635Z,993.76
2017-07-29T08:29:34.915Z,993.77
2017-07-29T08:30:34.691Z,993.79
2017-07-29T08:31:34.717Z,993.84
2017-07-29T08:32:34.744Z,993.79
2017-07-29T08:33:34.779Z,993.86
2017-07-29T08:34:35.055Z,993.78
2017-07-29T08:35:34.833Z,993.83
2017-07-29T08:36:34.864Z,993.87
2017-07-29T08:37:34.893Z,993.92
2017-07-29T08:38:34.919Z,993.88
2017-07-29T08:39:35.200Z,993.83
2017-07-29T08:40:34.978Z,993.81
2017-07-29T08:41:35.001Z,993.85
2017-07-29T08:42:35.032Z,993.84
2017-07-29T08:43:35.055Z,993.82
2017-07-29T08:44:35.088Z,993.79
2017-07-29T08:45:35.117Z,993.87
2017-07-29T08:46:35.141Z,993.86
2017-07-29T08:47:35.174Z,993.89
2017-07-29T08:48:35.204Z,993.83
2017-07-29T08:49:35.233Z,993.84
2017-07-29T08:50:35.265Z,993.79
2017-07-29T08:51:35.291Z,993.79
2017-07-29T08:52:35.420Z,993.81
2017-07-29T08:53:35.343Z,993.81
2017-07-29T08:54:35.376Z,993.75
2017-07-29T08:55:35.404Z,993.74
2017-07-29T08:56:35.430Z,993.8
2017-07-29T08:57:35.460Z,993.82
2017-07-29T08:58:35.492Z,993.85
2017-07-29T08:59:35.520Z,993.79
2017-07-29T09:00:35.545Z,993.84
2017-07-29T09:01:35.575Z,993.87
2017-07-29T09:02:35.602Z,993.82
2017-07-29T09:03:35.628Z,993.84
2017-07-29T09:04:35.659Z,993.83
2017-07-29T09:05:35.689Z,993.83
2017-07-29T09:06:35.720Z,993.86
2017-07-29T09:07:35.749Z,993.8
2017-07-29T09:08:35.777Z,993.83
2017-07-29T09:09:35.804Z,993.85
2017-07-29T09:10:35.833Z,993.81
2017-07-29T09:11:35.859Z,993.83
2017-07-29T09:12:35.888Z,993.83
2017-07-29T09:13:35.913Z,993.84
2017-07-29T09:14:35.945Z,993.8
2017-07-29T09:15:35.978Z,993.79
2017-07-29T09:16:36.001Z,993.83
2017-07-29T09:17:36.031Z,993.76
2017-07-29T09:18:36.059Z,993.75
2017-07-29T09:19:36.088Z,993.73
2017-07-29T09:20:36.118Z,993.81
2017-07-29T09:21:36.147Z,993.72
2017-07-29T09:22:36.172Z,993.72
2017-07-29T09:23:36.204Z,993.75
2017-07-29T09:24:36.230Z,993.71
2017-07-29T09:25:36.263Z,993.69
2017-07-29T09:26:36.290Z,993.74
2017-07-29T09:27:36.324Z,993.76
2017-07-29T09:28:36.352Z,993.78
2017-07-29T09:29:36.368Z,993.85
2017-07-29T09:30:36.401Z,993.75
2017-07-29T09:31:36.430Z,993.74
2017-07-29T09:32:36.458Z,993.74
2017-07-29T09:33:36.489Z,993.79
2017-07-29T09:34:36.517Z,993.83
2017-07-29T09:35:36.547Z,993.82
2017-07-29T09:36:36.575Z,993.77
2017-07-29T09:37:36.603Z,993.77
2017-07-29T09:38:36.630Z,993.8
2017-07-29T09:39:36.661Z,993.77
2017-07-29T09:40:36.693Z,993.82
2017-07-29T09:41:36.719Z,993.75
2017-07-29T09:42:36.747Z,993.74
2017-07-29T09:43:36.775Z,993.73
2017-07-29T09:44:36.808Z,993.66
2017-07-29T09:45:36.833Z,993.73
2017-07-29T09:46:36.862Z,993.76
2017-07-29T09:47:36.892Z,993.72
2017-07-29T09:48:36.922Z,993.67
2017-07-29T09:49:36.949Z,993.7
2017-07-29T09:50:36.978Z,993.7
2017-07-29T09:51:37.008Z,993.64
2017-07-29T09:52:37.036Z,993.7
2017-07-29T09:53:37.063Z,993.69
2017-07-29T09:54:37.095Z,993.68
2017-07-29T09:55:37.119Z,993.7
2017-07-29T09:56:37.154Z,993.64
2017-07-29T09:57:37.182Z,993.67
2017-07-29T09:58:37.209Z,993.63
2017-07-29T09:59:37.236Z,993.54
2017-07-29T10:00:37.263Z,993.64
2017-07-29T10:01:37.296Z,993.63
2017-07-29T10:02:37.325Z,993.61
2017-07-29T10:03:37.352Z,993.59
2017-07-29T10:04:37.381Z,993.56
2017-07-29T10:05:37.411Z,993.62
2017-07-29T10:06:37.439Z,993.6
2017-07-29T10:07:37.468Z,993.6
2017-07-29T10:08:37.495Z,993.54
2017-07-29T10:09:37.525Z,993.52
2017-07-29T10:10:37.549Z,993.56
2017-07-29T10:11:37.583Z,993.57
2017-07-29T10:12:37.612Z,993.56
2017-07-29T10:13:37.639Z,993.62
2017-07-29T10:14:37.674Z,993.63
2017-07-29T10:15:37.954Z,993.64
2017-07-29T10:16:37.731Z,993.6
2017-07-29T10:17:37.752Z,993.67
2017-07-29T10:18:37.840Z,993.66
2017-07-29T10:19:37.819Z,993.62
2017-07-29T10:20:38.092Z,993.67
2017-07-29T10:21:37.882Z,993.63
2017-07-29T10:22:37.906Z,993.55
2017-07-29T10:23:37.934Z,993.52
2017-07-29T10:24:37.966Z,993.56
2017-07-29T10:25:38.343Z,993.53
2017-07-29T10:26:38.025Z,993.48
2017-07-29T10:27:38.052Z,993.49
2017-07-29T10:28:38.079Z,993.44
2017-07-29T10:29:38.109Z,993.46
2017-07-29T10:30:38.391Z,993.44
2017-07-29T10:31:38.168Z,993.48
2017-07-29T10:32:38.196Z,993.48
2017-07-29T10:33:38.226Z,993.47
2017-07-29T10:34:38.251Z,993.46
2017-07-29T10:35:38.535Z,993.41
2017-07-29T10:36:38.312Z,993.47
2017-07-29T10:37:38.348Z,993.47
2017-07-29T10:38:38.373Z,993.43
2017-07-29T10:39:38.401Z,993.45
2017-07-29T10:40:38.683Z,993.45
2017-07-29T10:41:38.457Z,993.42
2017-07-29T10:42:38.489Z,993.49
2017-07-29T10:43:38.515Z,993.48
2017-07-29T10:44:38.546Z,993.42
2017-07-29T10:45:38.827Z,993.38
2017-07-29T10:46:38.602Z,993.32
2017-07-29T10:47:38.637Z,993.4
2017-07-29T10:48:38.666Z,993.35
2017-07-29T10:49:38.693Z,993.39
2017-07-29T10:50:39.022Z,993.38
2017-07-29T10:51:38.752Z,993.34
2017-07-29T10:52:38.777Z,993.31
2017-07-29T10:53:38.809Z,993.3
2017-07-29T10:54:38.838Z,993.3
2017-07-29T10:55:39.171Z,993.28
2017-07-29T10:56:38.896Z,993.33
2017-07-29T10:57:38.929Z,993.29
2017-07-29T10:58:38.958Z,993.33
2017-07-29T10:59:38.989Z,993.31
2017-07-29T11:00:39.016Z,993.29
2017-07-29T11:01:39.050Z,993.25
2017-07-29T11:02:39.076Z,993.26
2017-07-29T11:03:39.105Z,993.26
2017-07-29T11:04:39.134Z,993.27
2017-07-29T11:05:39.161Z,993.24
2017-07-29T11:06:39.192Z,993.24
2017-07-29T11:07:39.224Z,993.29
2017-07-29T11:08:39.253Z,993.29
2017-07-29T11:09:39.284Z,993.24
2017-07-29T11:10:39.313Z,993.27
2017-07-29T11:11:39.340Z,993.28
2017-07-29T11:12:39.365Z,993.17
2017-07-29T11:13:39.401Z,993.13
2017-07-29T11:14:39.428Z,993.15
2017-07-29T11:15:39.457Z,993.16
2017-07-29T11:16:39.484Z,993.14
2017-07-29T11:17:39.518Z,993.19
2017-07-29T11:18:39.543Z,993.19
2017-07-29T11:19:39.575Z,993.15
2017-07-29T11:20:39.604Z,993.19
2017-07-29T11:21:39.641Z,993.19
2017-07-29T11:22:39.665Z,993.15
2017-07-29T11:23:39.695Z,993.16
2017-07-29T11:24:39.722Z,993.17
2017-07-29T11:25:39.748Z,993.14
2017-07-29T11:26:39.780Z,993.17
2017-07-29T11:27:39.812Z,993.14
2017-07-29T11:28:39.845Z,993.23
2017-07-29T11:29:39.873Z,993.16
2017-07-29T11:30:39.901Z,993.18
2017-07-29T11:31:39.929Z,993.18
2017-07-29T11:32:39.962Z,993.17
2017-07-29T11:33:40.001Z,993.19
2017-07-29T11:34:40.019Z,993.13
2017-07-29T11:35:40.052Z,993.15
2017-07-29T11:36:40.079Z,993.16
2017-07-29T11:37:40.105Z,993.14
2017-07-29T11:38:40.136Z,993.14
2017-07-29T11:39:40.172Z,993.09
2017-07-29T11:40:40.196Z,993.18
2017-07-29T11:41:40.227Z,993.1
2017-07-29T11:42:40.259Z,993.05
2017-07-29T11:43:40.291Z,993.08
2017-07-29T11:44:40.335Z,993.01
2017-07-29T11:45:40.349Z,992.98
2017-07-29T11:46:40.377Z,993
2017-07-29T11:47:40.408Z,993.02
2017-07-29T11:48:40.439Z,992.98
2017-07-29T11:49:40.468Z,993.01
2017-07-29T11:50:40.495Z,992.96
2017-07-29T11:51:40.530Z,992.96
2017-07-29T11:52:40.564Z,992.85
2017-07-29T11:53:40.598Z,992.93
2017-07-29T11:54:40.607Z,992.96
2017-07-29T11:55:40.648Z,992.9
2017-07-29T11:56:40.687Z,992.9
2017-07-29T11:57:40.710Z,992.92
2017-07-29T11:58:40.738Z,992.97
2017-07-29T11:59:40.774Z,992.93
2017-07-29T12:00:40.801Z,992.88
2017-07-29T12:01:40.829Z,992.88
2017-07-29T12:02:40.858Z,992.91
2017-07-29T12:03:40.889Z,992.9
2017-07-29T12:04:40.917Z,992.81
2017-07-29T12:05:41.012Z,992.84
2017-07-29T12:06:40.995Z,992.83
2017-07-29T12:07:41.030Z,992.84
2017-07-29T12:08:41.050Z,992.85
2017-07-29T12:09:41.102Z,992.79
2017-07-29T12:10:41.119Z,992.76
2017-07-29T12:11:41.165Z,992.76
2017-07-29T12:12:41.170Z,992.81
2017-07-29T12:13:41.299Z,992.74
2017-07-29T12:14:41.233Z,992.77
2017-07-29T12:15:41.260Z,992.74
2017-07-29T12:16:41.301Z,992.7
2017-07-29T12:17:41.337Z,992.75
2017-07-29T12:18:41.431Z,992.74
2017-07-29T12:19:41.385Z,992.73
2017-07-29T12:20:41.437Z,992.71
2017-07-29T12:21:41.449Z,992.66
2017-07-29T12:22:41.489Z,992.72
2017-07-29T12:23:41.524Z,992.66
2017-07-29T12:24:41.547Z,992.62
2017-07-29T12:25:41.573Z,992.64
2017-07-29T12:26:41.595Z,992.68
2017-07-29T12:27:41.631Z,992.64
2017-07-29T12:28:41.663Z,992.65
2017-07-29T12:29:41.696Z,992.63
2017-07-29T12:30:41.730Z,992.62